LSZH/ZRH METAR and TAF weather

Enter ICAO airport designator
Station Type Date Time Source
LSZH METAR 2021/04/13 07:50 UTC NOAA

LSZH 130750Z VRB01KT 0800 R14/P2000N R16/1300U R28/P2000N R34/P2000N BCFG VCFG BKN002 BKN005 M00/M00 Q1029 BECMG 1500 BKN005


Station Type Date Time Source
LSZH Decoded METAR 2021/04/13 07:50 UTC NOAA

Zurich-Kloten, Switzerland (LSZH) 47-29N 008-32E 432M
Apr 13, 2021 - 03:50 AM EDT / 2021.04.13 0750 UTC
Wind: Variable at 1 MPH (1 KT):0
Visibility: less than 1 mile:0
Sky conditions: mostly cloudy
Weather: patches of fog; fog in the vicinity
Temperature: 32 F (0 C)
Dew Point: 32 F (0 C)
Relative Humidity: 100%
Pressure (altimeter): 30.39 in. Hg (1029 hPa)
ob: LSZH 130750Z VRB01KT 0800 R14/P2000N R16/1300U R28/P2000N R34/P2000N BCFG VCFG BKN002 BKN005 M00/M00 Q1029 BECMG 1500 BKN005
cycle: 8

Station Type Date Time Source
LSZH TAF 2021/04/13 07:17 UTC NOAA

TAF
AMD LSZH 130709Z 1307/1412 VRB02KT 0300 BCFG BKN002 TX07/1315Z TNM03/1306Z TNM02/1405Z
BECMG 1307/1308 0900
BECMG 1308/1309 1500 BKN005
BECMG 1309/1310 04007KT 6000 SCT015
BECMG 1310/1312 9999 BKN060
BECMG 1316/1319 VRB02KT
BECMG 1320/1323 CAVOK
BECMG 1407/1409 04010KT

Example: see airport list